Time;durP1;ratioP1;P1;durP2;ratioP2;P2;SDS_P1;SDS_P2;PMS_P1;PMS_P2;Temp;Humidity;BMP_temperature;BMP_pressure;BME280_temperature;BME280_humidity;BME280_pressure;Samples;Min_cycle;Max_cycle;Signal;HPM_P1;HPM_P2
2023/02/19 00:00:37;;;;;;;6.65;4.95;;;9.40;99.90;;;;;;2083636;28;20527;-87
2023/02/19 00:01:40;;;;;;;6.70;4.60;;;9.40;99.90;;;;;;2076689;28;20041;-85
2023/02/19 00:02:40;;;;;;;7.03;4.75;;;9.50;99.90;;;;;;2085611;28;20028;-86
2023/02/19 00:03:42;;;;;;;6.65;4.80;;;9.50;99.90;;;;;;2082977;28;20043;-86
2023/02/19 00:04:43;;;;;;;6.13;4.50;;;9.50;99.90;;;;;;2077487;28;20029;-85
2023/02/19 00:05:43;;;;;;;9.80;4.60;;;9.40;99.90;;;;;;2078418;28;20389;-83
2023/02/19 00:06:45;;;;;;;7.03;4.72;;;9.40;99.90;;;;;;2080111;28;20033;-85
2023/02/19 00:07:45;;;;;;;5.93;4.22;;;9.50;99.90;;;;;;2087478;28;20025;-85
2023/02/19 00:08:46;;;;;;;6.43;4.30;;;9.40;99.90;;;;;;2094341;28;20025;-84
2023/02/19 00:09:47;;;;;;;6.60;4.35;;;9.40;99.90;;;;;;2088770;28;20028;-84
2023/02/19 00:10:47;;;;;;;6.22;4.55;;;9.50;99.90;;;;;;2102056;28;20031;-83
2023/02/19 00:11:48;;;;;;;8.85;4.78;;;9.50;99.90;;;;;;2098534;28;20016;-84
2023/02/19 00:12:49;;;;;;;6.35;4.57;;;9.50;99.90;;;;;;2089564;28;20037;-84
2023/02/19 00:13:52;;;;;;;7.72;4.72;;;9.50;99.90;;;;;;2089918;28;20522;-83
2023/02/19 00:14:54;;;;;;;9.32;4.57;;;9.50;99.90;;;;;;2093479;28;20044;-83
2023/02/19 00:15:55;;;;;;;7.50;4.50;;;9.50;99.90;;;;;;2076044;28;20116;-76
2023/02/19 00:16:55;;;;;;;8.38;4.85;;;9.40;99.90;;;;;;2081039;28;20064;-79
2023/02/19 00:17:56;;;;;;;9.02;4.95;;;9.40;99.90;;;;;;2088485;28;20029;-74
2023/02/19 00:18:59;;;;;;;8.55;4.07;;;9.50;99.90;;;;;;2084380;28;20071;-76
2023/02/19 00:19:59;;;;;;;6.95;4.07;;;9.40;99.90;;;;;;2082047;28;20055;-75
2023/02/19 00:21:00;;;;;;;6.53;4.05;;;9.40;99.90;;;;;;2083924;28;20017;-75
2023/02/19 00:22:01;;;;;;;6.05;4.25;;;9.50;99.90;;;;;;2077337;28;20108;-76
2023/02/19 00:23:01;;;;;;;5.93;4.18;;;9.50;99.90;;;;;;2077278;28;20405;-76
2023/02/19 00:24:04;;;;;;;6.03;3.90;;;9.50;99.90;;;;;;2081990;28;20052;-75
2023/02/19 00:25:05;;;;;;;6.30;4.18;;;9.50;99.90;;;;;;2078946;28;20543;-76
2023/02/19 00:26:11;;;;;;;5.85;4.20;;;9.50;99.90;;;;;;2076599;28;20124;-76
2023/02/19 00:27:14;;;;;;;6.13;3.97;;;9.50;99.90;;;;;;2075804;28;20125;-77
2023/02/19 00:28:15;;;;;;;5.05;3.80;;;9.50;99.90;;;;;;2067194;28;20064;-76
2023/02/19 00:29:19;;;;;;;6.53;4.00;;;9.50;99.90;;;;;;2057022;28;20525;-76
2023/02/19 00:30:19;;;;;;;5.40;3.72;;;9.50;99.90;;;;;;2085033;28;20422;-76
2023/02/19 00:31:23;;;;;;;7.13;3.92;;;9.50;99.90;;;;;;2083498;28;20028;-77
2023/02/19 00:32:24;;;;;;;5.32;3.80;;;9.50;99.90;;;;;;2075160;28;20583;-77
2023/02/19 00:33:24;;;;;;;7.45;4.10;;;9.50;99.90;;;;;;2089318;28;20032;-76
2023/02/19 00:34:25;;;;;;;5.90;3.75;;;9.50;99.90;;;;;;2087731;28;20091;-77
2023/02/19 00:35:25;;;;;;;5.57;3.72;;;9.50;99.90;;;;;;2076796;28;20021;-77
2023/02/19 00:36:27;;;;;;;7.80;4.00;;;9.50;99.90;;;;;;2073358;28;20331;-78
2023/02/19 00:37:27;;;;;;;5.93;4.03;;;9.50;99.90;;;;;;2075595;28;20026;-76
2023/02/19 00:38:28;;;;;;;6.95;4.07;;;9.60;99.90;;;;;;2075226;28;20160;-75
2023/02/19 00:39:29;;;;;;;6.10;3.88;;;9.60;99.90;;;;;;2091904;28;20032;-76
2023/02/19 00:40:30;;;;;;;6.22;4.20;;;9.60;99.90;;;;;;2089388;28;20068;-76
2023/02/19 00:41:31;;;;;;;7.00;4.10;;;9.60;99.90;;;;;;2074544;28;20029;-76
2023/02/19 00:42:32;;;;;;;7.15;4.40;;;9.50;99.90;;;;;;2074161;28;20021;-76
2023/02/19 00:43:32;;;;;;;7.65;4.13;;;9.50;99.90;;;;;;2092785;28;20052;-76
2023/02/19 00:44:33;;;;;;;6.32;4.00;;;9.50;99.90;;;;;;2083957;28;20039;-76
2023/02/19 00:45:34;;;;;;;6.13;4.22;;;9.50;99.90;;;;;;2067606;28;20091;-77
2023/02/19 00:46:38;;;;;;;5.63;4.15;;;9.50;99.90;;;;;;2075510;28;20036;-78
2023/02/19 00:47:38;;;;;;;8.38;3.90;;;9.50;99.90;;;;;;2083678;28;20061;-77
2023/02/19 00:48:41;;;;;;;5.82;3.90;;;9.50;99.90;;;;;;2075309;28;20112;-78
2023/02/19 00:49:41;;;;;;;5.97;4.13;;;9.50;99.90;;;;;;2076893;28;20436;-77
2023/02/19 00:50:43;;;;;;;5.70;4.28;;;9.40;99.90;;;;;;2077246;28;20095;-77
2023/02/19 00:51:43;;;;;;;5.35;3.90;;;9.50;99.90;;;;;;2076814;28;20021;-77
2023/02/19 00:52:44;;;;;;;7.72;4.72;;;9.50;99.90;;;;;;2076364;28;20061;-78
2023/02/19 00:53:45;;;;;;;6.65;4.35;;;9.40;99.90;;;;;;2091675;28;20081;-78
2023/02/19 00:54:45;;;;;;;6.22;4.05;;;9.40;99.90;;;;;;2086551;28;20060;-76
2023/02/19 00:55:46;;;;;;;6.20;4.00;;;9.40;99.90;;;;;;2075923;28;20284;-75
2023/02/19 00:56:47;;;;;;;6.38;4.18;;;9.40;99.90;;;;;;2077532;28;20205;-77
2023/02/19 00:57:47;;;;;;;7.53;4.53;;;9.40;99.90;;;;;;2076365;28;20091;-77
2023/02/19 00:58:49;;;;;;;7.22;4.22;;;9.40;99.90;;;;;;2079480;28;20053;-77
2023/02/19 00:59:49;;;;;;;7.68;4.60;;;9.40;99.90;;;;;;2094817;28;20028;-76
2023/02/19 01:00:50;;;;;;;7.78;4.20;;;9.30;99.90;;;;;;2076765;28;20539;-76
2023/02/19 01:01:50;;;;;;;7.13;4.40;;;9.30;99.90;;;;;;2059919;28;20393;-76
2023/02/19 01:02:51;;;;;;;6.03;4.07;;;9.30;99.90;;;;;;2075370;28;20021;-76
2023/02/19 01:03:52;;;;;;;5.70;3.97;;;9.30;99.90;;;;;;2075593;28;20809;-76
2023/02/19 01:04:52;;;;;;;5.85;4.07;;;9.30;99.90;;;;;;2069635;28;20830;-77
2023/02/19 01:05:53;;;;;;;6.47;4.20;;;9.30;99.90;;;;;;2083483;28;20029;-76
2023/02/19 01:06:54;;;;;;;6.65;3.97;;;9.30;99.90;;;;;;2091674;28;20094;-76
2023/02/19 01:07:54;;;;;;;6.50;4.18;;;9.30;99.90;;;;;;2091022;28;20033;-76
2023/02/19 01:08:55;;;;;;;6.78;4.07;;;9.30;99.90;;;;;;2102989;28;20040;-76
2023/02/19 01:09:55;;;;;;;6.53;4.18;;;9.30;99.90;;;;;;2083540;28;20093;-76
2023/02/19 01:10:57;;;;;;;5.20;4.00;;;9.30;99.90;;;;;;2082780;28;20147;-76
2023/02/19 01:11:57;;;;;;;6.45;4.18;;;9.30;99.90;;;;;;2082794;28;20305;-76
2023/02/19 01:12:58;;;;;;;7.80;4.22;;;9.30;99.90;;;;;;2075588;28;20593;-76
2023/02/19 01:14:00;;;;;;;7.03;4.25;;;9.30;99.90;;;;;;2085143;28;20028;-78
2023/02/19 01:15:01;;;;;;;4.80;3.72;;;9.30;99.90;;;;;;2083376;28;20460;-76
2023/02/19 01:16:24;;;;;;;8.52;4.15;;;9.30;99.90;;;;;;2075470;28;20041;-75
2023/02/19 01:17:25;;;;;;;6.78;4.15;;;9.30;99.90;;;;;;2071062;28;20431;-76
2023/02/19 01:18:25;;;;;;;7.13;3.92;;;9.30;99.90;;;;;;2067746;28;20464;-76
2023/02/19 01:19:26;;;;;;;7.55;4.40;;;9.30;99.90;;;;;;2076862;28;20021;-76
2023/02/19 01:20:27;;;;;;;6.97;4.05;;;9.30;99.90;;;;;;2083988;28;20044;-76
2023/02/19 01:21:29;;;;;;;5.88;4.10;;;9.30;99.90;;;;;;2083394;28;20065;-76
2023/02/19 01:22:29;;;;;;;6.00;4.00;;;9.30;99.90;;;;;;2076533;28;20321;-77
2023/02/19 01:23:30;;;;;;;6.85;3.70;;;9.30;99.90;;;;;;2076121;28;20122;-76
2023/02/19 01:24:31;;;;;;;6.10;3.85;;;9.30;99.90;;;;;;2075039;28;20393;-76
2023/02/19 01:25:31;;;;;;;5.22;3.88;;;9.30;99.90;;;;;;2082863;28;20077;-75
2023/02/19 01:26:32;;;;;;;4.65;3.80;;;9.30;99.90;;;;;;2085627;28;20036;-76
2023/02/19 01:27:33;;;;;;;7.00;3.72;;;9.30;99.90;;;;;;2074940;28;20574;-76
2023/02/19 01:28:34;;;;;;;6.93;3.83;;;9.30;99.90;;;;;;2068095;28;20371;-76
2023/02/19 01:29:35;;;;;;;5.22;3.60;;;9.30;99.90;;;;;;2073828;28;20084;-76
2023/02/19 01:30:37;;;;;;;6.88;3.72;;;9.30;99.90;;;;;;2077430;28;20557;-75
2023/02/19 01:31:40;;;;;;;6.53;3.40;;;9.30;99.90;;;;;;2076861;28;20036;-76
2023/02/19 01:32:41;;;;;;;6.57;3.38;;;9.30;99.90;;;;;;2077066;28;20567;-75
2023/02/19 01:33:49;;;;;;;5.13;3.50;;;9.30;99.90;;;;;;2076808;28;20044;-76
2023/02/19 01:34:50;;;;;;;7.75;3.67;;;9.30;99.90;;;;;;2076033;28;20056;-75
2023/02/19 01:35:50;;;;;;;6.88;3.55;;;9.30;99.90;;;;;;2076007;28;20492;-75
2023/02/19 01:36:51;;;;;;;4.75;3.20;;;9.30;99.90;;;;;;2077576;28;20079;-75
2023/02/19 01:37:52;;;;;;;5.00;3.50;;;9.30;99.90;;;;;;2077202;28;20563;-77
2023/02/19 01:38:52;;;;;;;5.68;3.25;;;9.30;99.90;;;;;;2075458;28;20029;-76
2023/02/19 01:39:53;;;;;;;5.65;3.25;;;9.30;99.90;;;;;;2076638;28;20029;-75
2023/02/19 01:40:58;;;;;;;5.38;3.28;;;9.30;99.90;;;;;;2075083;28;20030;-77
2023/02/19 01:41:58;;;;;;;4.35;3.25;;;9.30;99.90;;;;;;2068549;28;20073;-76
2023/02/19 01:42:59;;;;;;;5.25;3.40;;;9.30;99.90;;;;;;2076974;28;20025;-75
2023/02/19 01:44:16;;;;;;;4.50;3.30;;;9.30;99.90;;;;;;2076218;28;20060;-74
2023/02/19 01:45:29;;;;;;;4.53;3.50;;;9.30;99.90;;;;;;2088166;28;20032;-75
2023/02/19 01:46:32;;;;;;;5.50;3.58;;;9.30;99.90;;;;;;2084766;28;20256;-76
2023/02/19 01:47:32;;;;;;;5.20;3.50;;;9.30;99.90;;;;;;2075373;28;20876;-76
2023/02/19 01:48:37;;;;;;;5.55;3.72;;;9.30;99.90;;;;;;2077789;28;20034;-76
2023/02/19 01:49:47;;;;;;;5.88;3.70;;;9.30;99.90;;;;;;2075882;28;20091;-76
2023/02/19 01:50:57;;;;;;;5.78;3.80;;;9.30;99.90;;;;;;2075357;28;20041;-75
2023/02/19 01:52:03;;;;;;;6.43;3.80;;;9.30;99.90;;;;;;2090877;28;20463;-76
2023/02/19 01:53:06;;;;;;;6.35;4.07;;;9.30;99.90;;;;;;2098421;28;20035;-75
2023/02/19 01:54:10;;;;;;;5.75;3.67;;;9.30;99.90;;;;;;2096500;28;20046;-76
2023/02/19 01:55:12;;;;;;;5.75;3.80;;;9.30;99.90;;;;;;2081380;28;20033;-76
2023/02/19 01:56:15;;;;;;;5.95;3.83;;;9.30;99.90;;;;;;2085613;28;20036;-76
2023/02/19 01:57:21;;;;;;;6.15;3.80;;;9.30;99.90;;;;;;2082375;28;20159;-76
2023/02/19 01:58:24;;;;;;;6.80;3.65;;;9.30;99.90;;;;;;2076733;28;20223;-76
2023/02/19 01:59:25;;;;;;;6.55;3.88;;;9.30;99.90;;;;;;2081147;28;20079;-75
2023/02/19 02:00:26;;;;;;;5.70;3.85;;;9.30;99.90;;;;;;2082802;28;20392;-75
2023/02/19 02:01:27;;;;;;;5.55;3.83;;;9.30;99.90;;;;;;2077237;28;20103;-76
2023/02/19 02:02:28;;;;;;;6.05;3.80;;;9.20;99.90;;;;;;2076546;28;20030;-77
2023/02/19 02:03:29;;;;;;;6.70;3.55;;;9.20;99.90;;;;;;2084731;28;20028;-76
2023/02/19 02:04:32;;;;;;;6.35;3.45;;;9.20;99.90;;;;;;2092558;28;20028;-76
2023/02/19 02:06:15;;;;;;;4.88;3.78;;;9.20;99.90;;;;;;2081984;28;20020;-76
2023/02/19 02:11:15;;;;;;;4.85;3.28;;;9.10;99.90;;;;;;2089540;28;20031;-77
2023/02/19 02:12:16;;;;;;;4.80;3.47;;;9.10;99.90;;;;;;2099093;28;20096;-77
2023/02/19 02:13:17;;;;;;;7.05;3.50;;;9.10;99.90;;;;;;2094184;28;20031;-77
2023/02/19 02:14:24;;;;;;;3.95;3.13;;;9.10;99.90;;;;;;2084337;28;20037;-78
2023/02/19 02:15:34;;;;;;;4.05;2.88;;;9.00;99.90;;;;;;2072274;28;20045;-78
2023/02/19 02:16:49;;;;;;;4.43;3.28;;;9.10;99.90;;;;;;2073037;28;20064;-77
2023/02/19 02:18:01;;;;;;;5.82;3.40;;;9.00;99.90;;;;;;2087772;28;20526;-78
2023/02/19 02:19:14;;;;;;;5.47;3.40;;;9.00;99.90;;;;;;2096105;28;20035;-77
2023/02/19 02:20:18;;;;;;;4.93;3.20;;;9.00;99.90;;;;;;2091361;28;20040;-78
2023/02/19 02:21:32;;;;;;;4.43;3.03;;;9.00;99.90;;;;;;2080559;28;20341;-77
2023/02/19 02:22:37;;;;;;;4.15;3.20;;;9.00;99.90;;;;;;2079753;28;20406;-78
2023/02/19 02:24:09;;;;;;;4.72;3.10;;;9.00;99.90;;;;;;2079597;28;20027;-76
2023/02/19 02:25:38;;;;;;;4.30;3.10;;;8.90;99.90;;;;;;2073110;28;20120;-77
2023/02/19 02:26:44;;;;;;;4.10;3.10;;;8.90;99.90;;;;;;2077294;28;20136;-77
2023/02/19 02:28:19;;;;;;;5.57;2.92;;;8.90;99.90;;;;;;2079015;28;20500;-76
2023/02/19 02:29:35;;;;;;;5.55;3.00;;;8.90;99.90;;;;;;2084918;28;20028;-78
2023/02/19 02:30:43;;;;;;;4.70;2.97;;;8.90;99.90;;;;;;2084106;28;20025;-77
2023/02/19 02:31:57;;;;;;;4.25;3.00;;;8.90;99.90;;;;;;2079439;28;20029;-78
2023/02/19 02:33:25;;;;;;;4.18;2.70;;;8.90;99.90;;;;;;2081841;28;20241;-77
2023/02/19 02:34:33;;;;;;;3.97;2.95;;;8.80;99.90;;;;;;2097433;28;20056;-78
2023/02/19 02:35:44;;;;;;;3.88;2.63;;;8.80;99.90;;;;;;2090257;28;20109;-76
2023/02/19 02:36:48;;;;;;;3.72;2.90;;;8.80;99.90;;;;;;2072499;28;20033;-76
2023/02/19 02:37:54;;;;;;;3.83;2.80;;;8.90;99.90;;;;;;2071886;28;20029;-77
2023/02/19 02:38:57;;;;;;;5.50;2.72;;;8.80;99.90;;;;;;2077609;28;20029;-77
2023/02/19 02:39:58;;;;;;;4.20;2.83;;;8.80;99.90;;;;;;2085621;28;20035;-77
2023/02/19 02:41:00;;;;;;;3.08;2.70;;;8.80;99.90;;;;;;2077459;28;20121;-77
2023/02/19 02:43:32;;;;;;;3.20;2.53;;;8.80;99.90;;;;;;2084220;28;20021;-77
2023/02/19 02:44:34;;;;;;;3.25;2.50;;;8.80;99.90;;;;;;2077305;28;20478;-76
2023/02/19 02:45:35;;;;;;;3.50;2.50;;;8.80;99.90;;;;;;2081626;28;20172;-77
2023/02/19 02:46:45;;;;;;;2.95;2.55;;;8.80;99.90;;;;;;2086745;28;20455;-75
2023/02/19 02:47:54;;;;;;;3.53;2.40;;;8.80;99.90;;;;;;2097256;28;20274;-77
2023/02/19 02:48:57;;;;;;;3.55;2.45;;;8.80;99.90;;;;;;2091686;28;20052;-75
2023/02/19 02:50:04;;;;;;;3.00;2.40;;;8.80;99.90;;;;;;2077777;28;20108;-76
2023/02/19 02:51:22;;;;;;;3.40;2.30;;;8.80;99.90;;;;;;2078220;28;20017;-76
2023/02/19 02:55:43;;;;;;;2.65;2.10;;;8.70;99.90;;;;;;2077794;28;20026;-75
2023/02/19 02:56:47;;;;;;;2.30;2.10;;;8.70;99.90;;;;;;2078263;28;20030;-76
2023/02/19 02:57:48;;;;;;;2.40;2.08;;;8.70;99.90;;;;;;2085220;28;20021;-77
2023/02/19 02:58:51;;;;;;;2.63;2.03;;;8.80;99.90;;;;;;2094263;28;20021;-78
2023/02/19 02:59:51;;;;;;;3.13;1.98;;;8.70;99.90;;;;;;2085575;28;20116;-76
2023/02/19 03:02:42;;;;;;;3.15;1.90;;;8.70;99.90;;;;;;2090669;28;20033;-76
2023/02/19 03:03:46;;;;;;;3.78;2.00;;;8.70;99.90;;;;;;2086137;28;20530;-76
2023/02/19 03:06:34;;;;;;;1.92;1.80;;;8.70;99.90;;;;;;2091154;28;20699;-76
2023/02/19 03:07:44;;;;;;;2.47;1.92;;;8.70;99.90;;;;;;2076331;28;20032;-78
2023/02/19 03:09:22;;;;;;;3.95;1.98;;;8.70;99.90;;;;;;2078063;28;20492;-76
2023/02/19 03:10:30;;;;;;;3.35;1.77;;;8.70;99.90;;;;;;2068449;28;20075;-77
2023/02/19 03:20:09;;;;;;;1.40;1.30;;;8.60;99.90;;;;;;2086904;28;20028;-75
2023/02/19 03:21:10;;;;;;;1.77;1.30;;;8.60;99.90;;;;;;2082450;28;20021;-75
2023/02/19 03:22:18;;;;;;;1.50;1.40;;;8.60;99.90;;;;;;2071484;28;20021;-76
2023/02/19 03:26:02;;;;;;;1.60;1.50;;;8.60;99.90;;;;;;2073969;28;20041;-75
2023/02/19 03:26:11;;;;;;;2.22;1.45;;;8.60;99.90;;;;;;2079789;28;20044;-76
2023/02/19 03:27:25;;;;;;;1.80;1.50;;;8.60;99.90;;;;;;2086177;28;20415;-76
2023/02/19 03:29:53;;;;;;;1.60;1.50;;;8.60;99.90;;;;;;2084139;28;20095;-77
2023/02/19 03:30:54;;;;;;;1.77;1.45;;;8.60;99.90;;;;;;2078981;28;20025;-77
2023/02/19 03:32:00;;;;;;;1.67;1.40;;;8.60;99.90;;;;;;2079037;28;20438;-76
2023/02/19 03:33:10;;;;;;;2.40;1.58;;;8.50;99.90;;;;;;2078403;28;20017;-75
2023/02/19 03:34:19;;;;;;;2.00;1.58;;;8.50;99.90;;;;;;2066685;28;20073;-76
2023/02/19 03:35:24;;;;;;;1.90;1.50;;;8.50;99.90;;;;;;2068328;28;20766;-76
2023/02/19 03:36:37;;;;;;;1.52;1.42;;;8.50;99.90;;;;;;2068289;28;20048;-76
2023/02/19 03:37:51;;;;;;;1.40;1.30;;;8.60;99.90;;;;;;2088341;28;20514;-76
2023/02/19 03:39:08;;;;;;;3.60;1.50;;;8.60;99.90;;;;;;2093680;28;20574;-75
2023/02/19 03:40:11;;;;;;;1.58;1.30;;;8.60;99.90;;;;;;2087969;28;20032;-75
2023/02/19 03:41:33;;;;;;;1.50;1.40;;;8.50;99.90;;;;;;2079965;28;20044;-75
2023/02/19 03:42:46;;;;;;;1.52;1.30;;;8.60;99.90;;;;;;2087022;28;20145;-76
2023/02/19 03:44:12;;;;;;;1.83;1.60;;;8.60;99.90;;;;;;2084095;28;20028;-76
2023/02/19 03:45:46;;;;;;;3.67;1.70;;;8.50;99.90;;;;;;2068678;28;20031;-76
2023/02/19 03:47:02;;;;;;;1.35;1.20;;;8.50;99.90;;;;;;2082909;28;20472;-76
2023/02/19 03:48:29;;;;;;;1.63;1.50;;;8.50;99.90;;;;;;2082036;28;20025;-76
2023/02/19 03:49:58;;;;;;;2.88;1.60;;;8.50;99.90;;;;;;2062128;28;20488;-76
2023/02/19 03:51:26;;;;;;;1.77;1.50;;;8.50;99.90;;;;;;2070186;28;20644;-76
2023/02/19 03:52:45;;;;;;;2.20;1.60;;;8.50;99.90;;;;;;2085854;28;20033;-75
2023/02/19 03:54:07;;;;;;;1.77;1.40;;;8.50;99.90;;;;;;2084342;28;20381;-75
2023/02/19 03:55:16;;;;;;;1.60;1.50;;;8.60;99.90;;;;;;2073684;28;20028;-76
2023/02/19 03:56:29;;;;;;;3.00;1.58;;;8.50;99.90;;;;;;2076160;28;20064;-76
2023/02/19 03:57:46;;;;;;;1.70;1.60;;;8.50;99.90;;;;;;2075583;28;20520;-76
2023/02/19 03:59:10;;;;;;;1.60;1.50;;;8.50;99.90;;;;;;2085961;28;20037;-76
2023/02/19 04:00:35;;;;;;;2.58;1.80;;;8.50;99.90;;;;;;2088796;28;20063;-76
2023/02/19 04:01:43;;;;;;;1.50;1.40;;;8.50;99.90;;;;;;2074808;28;20049;-76
2023/02/19 04:02:58;;;;;;;2.47;1.40;;;8.50;99.90;;;;;;2083489;28;20390;-77
2023/02/19 04:04:14;;;;;;;2.17;1.50;;;8.50;99.90;;;;;;2078918;28;20033;-75
2023/02/19 04:05:23;;;;;;;1.50;1.40;;;8.50;99.90;;;;;;2073759;28;20825;-75
2023/02/19 04:06:29;;;;;;;1.50;1.40;;;8.50;99.90;;;;;;2063155;28;20363;-75
2023/02/19 04:07:34;;;;;;;1.63;1.33;;;8.60;99.90;;;;;;2079496;28;20289;-75
2023/02/19 04:08:37;;;;;;;1.58;1.30;;;8.50;99.90;;;;;;2092023;28;20032;-75
2023/02/19 04:09:44;;;;;;;1.50;1.40;;;8.60;99.90;;;;;;2093429;28;20024;-75
2023/02/19 04:10:50;;;;;;;1.83;1.45;;;8.50;99.90;;;;;;2085882;28;20020;-75
2023/02/19 04:11:53;;;;;;;1.75;1.38;;;8.50;99.90;;;;;;2087766;28;20339;-75
2023/02/19 04:13:05;;;;;;;1.30;1.20;;;8.50;99.90;;;;;;2086482;28;20508;-75
2023/02/19 04:14:16;;;;;;;1.60;1.30;;;8.60;99.90;;;;;;2075898;28;20216;-75
2023/02/19 04:15:22;;;;;;;1.60;1.20;;;8.60;99.90;;;;;;2083515;28;20060;-75
2023/02/19 04:16:27;;;;;;;1.50;1.30;;;8.60;99.90;;;;;;2089820;28;20282;-75
2023/02/19 04:17:37;;;;;;;1.75;1.50;;;8.60;99.90;;;;;;2086124;28;20069;-76
2023/02/19 04:18:42;;;;;;;2.15;1.38;;;8.60;99.90;;;;;;2093455;28;20032;-75
2023/02/19 04:19:46;;;;;;;2.53;1.45;;;8.60;99.90;;;;;;2092779;28;20035;-76
2023/02/19 04:20:48;;;;;;;1.33;1.20;;;8.60;99.90;;;;;;2074450;28;20114;-76
2023/02/19 04:21:49;;;;;;;1.23;1.13;;;8.60;99.90;;;;;;2076071;28;20172;-76
2023/02/19 04:22:50;;;;;;;1.23;1.15;;;8.60;99.90;;;;;;2097228;28;20032;-76
2023/02/19 04:23:51;;;;;;;1.30;1.20;;;8.60;99.90;;;;;;2095893;28;20503;-76
2023/02/19 04:24:54;;;;;;;1.30;1.20;;;8.60;99.90;;;;;;2093043;28;20019;-77
2023/02/19 04:25:57;;;;;;;1.20;1.10;;;8.60;99.90;;;;;;2084473;28;20079;-75
2023/02/19 04:26:58;;;;;;;1.52;1.10;;;8.60;99.90;;;;;;2077097;28;20247;-75
2023/02/19 04:28:00;;;;;;;1.00;1.00;;;8.60;99.90;;;;;;2085539;28;20632;-75
2023/02/19 04:29:01;;;;;;;1.23;1.17;;;8.60;99.90;;;;;;2085406;28;20086;-75
2023/02/19 04:30:01;;;;;;;2.15;1.13;;;8.60;99.90;;;;;;2077189;28;20539;-75
2023/02/19 04:31:02;;;;;;;2.10;1.10;;;8.60;99.90;;;;;;2080402;28;20029;-75
2023/02/19 04:32:03;;;;;;;1.90;1.17;;;8.60;99.90;;;;;;2078896;28;20080;-75
2023/02/19 04:33:03;;;;;;;1.30;1.10;;;8.60;99.90;;;;;;2074198;28;20025;-75
2023/02/19 04:34:04;;;;;;;1.20;1.10;;;8.60;99.90;;;;;;2077313;28;20047;-75
2023/02/19 04:35:05;;;;;;;1.30;1.20;;;8.50;99.90;;;;;;2075480;28;20030;-75
2023/02/19 04:36:06;;;;;;;1.15;1.05;;;8.50;99.90;;;;;;2079316;28;20060;-75
2023/02/19 04:37:07;;;;;;;1.13;1.02;;;8.50;99.90;;;;;;2076983;28;20033;-75
2023/02/19 04:38:07;;;;;;;1.00;1.00;;;8.50;99.90;;;;;;2076931;28;20021;-74
2023/02/19 04:39:08;;;;;;;1.13;0.93;;;8.50;99.90;;;;;;2093274;28;20044;-75
2023/02/19 04:40:09;;;;;;;1.10;1.00;;;8.50;99.90;;;;;;2087837;28;20063;-75
2023/02/19 04:41:10;;;;;;;1.60;0.90;;;8.50;99.90;;;;;;2077665;28;20639;-74
2023/02/19 04:42:10;;;;;;;0.90;0.90;;;8.50;99.90;;;;;;2078342;28;20028;-75
2023/02/19 04:43:11;;;;;;;1.10;1.00;;;8.50;99.90;;;;;;2077441;28;20125;-74
2023/02/19 04:44:11;;;;;;;1.50;1.13;;;8.50;99.90;;;;;;2078158;28;20036;-75
2023/02/19 04:45:12;;;;;;;0.90;0.90;;;8.50;99.90;;;;;;2073456;28;20359;-75
2023/02/19 04:46:12;;;;;;;1.17;0.90;;;8.40;99.90;;;;;;2078502;28;20033;-75
2023/02/19 04:47:16;;;;;;;1.17;1.05;;;8.40;99.90;;;;;;2093171;28;20028;-76
2023/02/19 04:48:17;;;;;;;1.00;1.00;;;8.40;99.90;;;;;;2092200;28;20050;-76
2023/02/19 04:49:17;;;;;;;1.17;1.08;;;8.40;99.90;;;;;;2077645;28;20705;-74
2023/02/19 04:50:18;;;;;;;1.63;0.90;;;8.40;99.90;;;;;;2079987;28;20029;-76
2023/02/19 04:51:18;;;;;;;1.05;0.90;;;8.40;99.90;;;;;;2069812;28;20017;-75
2023/02/19 04:52:19;;;;;;;1.67;1.10;;;8.50;99.90;;;;;;2079050;28;20041;-75
2023/02/19 04:53:19;;;;;;;1.40;1.13;;;8.40;99.90;;;;;;2084165;28;20049;-76
2023/02/19 04:54:20;;;;;;;1.20;1.10;;;8.40;99.90;;;;;;2081378;28;20064;-76
2023/02/19 04:55:20;;;;;;;0.98;0.82;;;8.40;99.90;;;;;;2076390;28;20061;-75
2023/02/19 04:56:21;;;;;;;1.00;0.90;;;8.40;99.90;;;;;;2081889;28;20040;-75
2023/02/19 04:57:21;;;;;;;1.02;1.00;;;8.40;99.90;;;;;;2079263;28;20281;-76
2023/02/19 04:58:22;;;;;;;1.20;1.10;;;8.50;99.90;;;;;;2075321;28;20180;-76
2023/02/19 04:59:22;;;;;;;1.20;1.10;;;8.50;99.90;;;;;;2078454;28;20401;-76
2023/02/19 05:00:23;;;;;;;1.33;1.20;;;8.50;99.90;;;;;;2078015;28;20020;-75
2023/02/19 05:01:24;;;;;;;2.88;1.33;;;8.50;99.90;;;;;;2079092;28;20036;-76
2023/02/19 05:02:24;;;;;;;1.30;1.20;;;8.50;99.90;;;;;;2076708;28;20021;-76
2023/02/19 05:03:25;;;;;;;1.40;1.30;;;8.50;99.90;;;;;;2084751;28;20033;-76
2023/02/19 05:04:25;;;;;;;1.63;1.40;;;8.40;99.90;;;;;;2084764;28;20033;-76
2023/02/19 05:05:26;;;;;;;1.60;1.30;;;8.40;99.90;;;;;;2080183;28;20037;-76
2023/02/19 05:06:27;;;;;;;1.25;1.13;;;8.40;99.90;;;;;;2094335;28;20553;-76
2023/02/19 05:07:27;;;;;;;1.10;1.00;;;8.40;99.90;;;;;;2085950;28;20033;-76
2023/02/19 05:08:28;;;;;;;1.08;0.90;;;8.40;99.90;;;;;;2077992;28;20304;-77
2023/02/19 05:09:28;;;;;;;1.08;0.90;;;8.40;99.90;;;;;;2077617;28;20544;-76
2023/02/19 05:10:29;;;;;;;0.80;0.80;;;8.40;99.90;;;;;;2077989;28;20041;-75
2023/02/19 05:11:30;;;;;;;0.90;0.90;;;8.40;99.90;;;;;;2074651;28;20035;-75
2023/02/19 05:12:30;;;;;;;1.73;0.80;;;8.40;99.90;;;;;;2076673;28;20033;-76
2023/02/19 05:13:31;;;;;;;2.38;1.00;;;8.40;99.90;;;;;;2077261;28;20044;-76
2023/02/19 05:14:32;;;;;;;1.00;1.00;;;8.40;99.90;;;;;;2077591;28;20400;-77
2023/02/19 05:15:32;;;;;;;1.30;1.00;;;8.40;99.90;;;;;;2083500;28;20048;-78
2023/02/19 05:16:33;;;;;;;1.15;1.05;;;8.40;99.90;;;;;;2078744;28;20033;-78
2023/02/19 05:17:34;;;;;;;2.30;1.20;;;8.40;99.90;;;;;;2085798;28;20032;-78
2023/02/19 05:18:34;;;;;;;1.98;1.40;;;8.40;99.90;;;;;;2085866;28;20450;-78
2023/02/19 05:19:35;;;;;;;1.50;1.40;;;8.40;99.90;;;;;;2079597;28;20029;-78
2023/02/19 05:20:36;;;;;;;1.65;1.50;;;8.40;99.90;;;;;;2076728;28;20104;-78
2023/02/19 05:21:39;;;;;;;2.92;1.30;;;8.30;99.90;;;;;;2077174;28;20049;-79
2023/02/19 05:22:39;;;;;;;2.78;1.48;;;8.30;99.90;;;;;;2077475;28;20547;-79
2023/02/19 05:23:41;;;;;;;1.50;1.40;;;8.30;99.90;;;;;;2079146;28;20377;-78
2023/02/19 05:24:41;;;;;;;1.73;1.20;;;8.30;99.90;;;;;;2069750;28;20691;-77
2023/02/19 05:25:42;;;;;;;2.50;1.30;;;8.30;99.90;;;;;;2077933;28;20610;-78
2023/02/19 05:26:42;;;;;;;1.73;1.20;;;8.30;99.90;;;;;;2075023;28;20257;-78
2023/02/19 05:27:43;;;;;;;1.63;1.20;;;8.20;99.90;;;;;;2073206;28;20079;-78
2023/02/19 05:28:45;;;;;;;1.30;1.10;;;8.20;99.90;;;;;;2078066;28;20204;-78
2023/02/19 05:29:46;;;;;;;2.15;1.00;;;8.20;99.90;;;;;;2078877;28;20029;-78
2023/02/19 05:30:49;;;;;;;2.40;1.02;;;8.20;99.90;;;;;;2077341;28;20382;-78
2023/02/19 05:31:49;;;;;;;1.27;1.08;;;8.20;99.90;;;;;;2078050;28;20108;-78
2023/02/19 05:32:50;;;;;;;1.17;1.08;;;8.10;99.90;;;;;;2079019;28;20058;-78
2023/02/19 05:33:51;;;;;;;1.95;1.10;;;8.10;99.90;;;;;;2079974;28;20030;-78
2023/02/19 05:34:52;;;;;;;1.00;0.90;;;8.10;99.90;;;;;;2081221;28;20133;-79
2023/02/19 05:35:54;;;;;;;1.02;1.00;;;8.00;99.90;;;;;;2079497;28;20333;-78
2023/02/19 05:36:55;;;;;;;1.88;1.05;;;8.00;99.90;;;;;;2079483;28;20037;-79
2023/02/19 05:37:55;;;;;;;1.63;1.17;;;8.00;99.90;;;;;;2081241;28;20033;-78
2023/02/19 05:38:56;;;;;;;1.35;1.00;;;8.00;99.90;;;;;;2086645;28;20032;-78
2023/02/19 05:39:57;;;;;;;1.75;1.00;;;8.00;99.90;;;;;;2078272;28;20471;-78
2023/02/19 05:41:29;;;;;;;2.08;1.10;;;7.90;99.90;;;;;;2085562;28;20036;-78
2023/02/19 05:42:30;;;;;;;2.28;1.10;;;7.90;99.90;;;;;;2067688;28;20046;-78
2023/02/19 05:43:30;;;;;;;1.17;1.00;;;7.90;99.90;;;;;;2071554;28;20184;-77
2023/02/19 05:44:31;;;;;;;1.15;1.00;;;7.90;99.90;;;;;;2078652;28;20033;-77
2023/02/19 05:45:33;;;;;;;1.00;1.00;;;7.90;99.90;;;;;;2078787;28;20511;-77
2023/02/19 05:46:33;;;;;;;0.98;0.98;;;7.80;99.90;;;;;;2078039;28;20034;-76
2023/02/19 05:47:34;;;;;;;2.75;1.00;;;7.80;99.90;;;;;;2076655;28;20018;-76
2023/02/19 05:48:35;;;;;;;1.10;1.00;;;7.80;99.90;;;;;;2079838;28;20560;-77
2023/02/19 05:49:36;;;;;;;1.20;1.10;;;7.80;99.90;;;;;;2087402;28;20550;-78
2023/02/19 05:50:37;;;;;;;1.05;1.00;;;7.80;99.90;;;;;;2095163;28;20342;-77
2023/02/19 05:51:49;;;;;;;2.15;1.00;;;7.80;99.90;;;;;;2082899;28;20117;-77
2023/02/19 05:52:50;;;;;;;1.52;1.00;;;7.80;99.90;;;;;;2078830;28;20131;-78
2023/02/19 05:53:51;;;;;;;1.15;0.90;;;7.80;99.90;;;;;;2078723;28;20311;-77
2023/02/19 05:54:52;;;;;;;1.00;1.00;;;7.80;99.90;;;;;;2080269;28;20013;-77
2023/02/19 05:55:52;;;;;;;1.10;0.98;;;7.70;99.90;;;;;;2077946;28;20613;-78
2023/02/19 05:56:53;;;;;;;1.63;1.00;;;7.80;99.90;;;;;;2094277;28;20029;-78
2023/02/19 05:57:54;;;;;;;1.05;0.98;;;7.80;99.90;;;;;;2084877;28;20048;-79
2023/02/19 05:58:55;;;;;;;1.00;1.00;;;7.70;99.90;;;;;;2076310;28;20487;-78
2023/02/19 05:59:55;;;;;;;0.90;0.90;;;7.70;99.90;;;;;;2095725;28;20082;-79
2023/02/19 06:00:56;;;;;;;1.27;1.13;;;7.80;99.90;;;;;;2079162;28;20063;-78
2023/02/19 06:01:57;;;;;;;1.08;0.98;;;7.70;99.90;;;;;;2070805;28;20037;-79
2023/02/19 06:02:57;;;;;;;1.20;1.02;;;7.70;99.90;;;;;;2080239;28;20040;-79
2023/02/19 06:03:59;;;;;;;1.30;1.20;;;7.70;99.90;;;;;;2094182;28;20533;-78